sensor_id;sensor_type;location;lat;lon;timestamp;P1;durP1;ratioP1;P2;durP2;ratioP2
9166;SDS011;4618;48.818;9.088;2023-11-22T00:02:01;4.07;;;3.37;;
9166;SDS011;4618;48.818;9.088;2023-11-22T00:04:27;3.87;;;3.47;;
9166;SDS011;4618;48.818;9.088;2023-11-22T00:06:52;4.20;;;3.83;;
9166;SDS011;4618;48.818;9.088;2023-11-22T00:09:18;4.30;;;3.90;;
9166;SDS011;4618;48.818;9.088;2023-11-22T00:11:47;4.30;;;3.97;;
9166;SDS011;4618;48.818;9.088;2023-11-22T00:14:13;4.77;;;4.37;;
9166;SDS011;4618;48.818;9.088;2023-11-22T00:16:39;6.57;;;5.07;;
9166;SDS011;4618;48.818;9.088;2023-11-22T00:19:05;5.33;;;4.83;;
9166;SDS011;4618;48.818;9.088;2023-11-22T00:21:31;6.17;;;5.63;;
9166;SDS011;4618;48.818;9.088;2023-11-22T00:23:57;7.03;;;5.83;;
9166;SDS011;4618;48.818;9.088;2023-11-22T00:26:23;7.27;;;6.57;;
9166;SDS011;4618;48.818;9.088;2023-11-22T00:28:48;7.10;;;6.37;;
9166;SDS011;4618;48.818;9.088;2023-11-22T00:31:14;7.73;;;6.70;;
9166;SDS011;4618;48.818;9.088;2023-11-22T00:33:40;9.17;;;6.47;;
9166;SDS011;4618;48.818;9.088;2023-11-22T00:36:06;7.07;;;6.37;;
9166;SDS011;4618;48.818;9.088;2023-11-22T00:38:33;6.47;;;5.87;;
9166;SDS011;4618;48.818;9.088;2023-11-22T00:41:01;7.37;;;6.53;;
9166;SDS011;4618;48.818;9.088;2023-11-22T00:43:30;7.00;;;6.40;;
9166;SDS011;4618;48.818;9.088;2023-11-22T00:45:55;7.10;;;6.33;;
9166;SDS011;4618;48.818;9.088;2023-11-22T00:48:22;7.53;;;6.73;;
9166;SDS011;4618;48.818;9.088;2023-11-22T00:50:47;9.43;;;6.23;;
9166;SDS011;4618;48.818;9.088;2023-11-22T00:53:13;7.47;;;6.70;;
9166;SDS011;4618;48.818;9.088;2023-11-22T00:55:39;8.03;;;7.00;;
9166;SDS011;4618;48.818;9.088;2023-11-22T00:58:05;7.53;;;6.73;;
9166;SDS011;4618;48.818;9.088;2023-11-22T01:00:32;7.93;;;6.70;;
9166;SDS011;4618;48.818;9.088;2023-11-22T01:02:58;7.80;;;6.40;;
9166;SDS011;4618;48.818;9.088;2023-11-22T01:05:23;7.27;;;6.57;;
9166;SDS011;4618;48.818;9.088;2023-11-22T01:07:49;6.67;;;5.60;;
9166;SDS011;4618;48.818;9.088;2023-11-22T01:10:15;6.77;;;6.13;;
9166;SDS011;4618;48.818;9.088;2023-11-22T01:12:40;7.00;;;5.70;;
9166;SDS011;4618;48.818;9.088;2023-11-22T01:15:07;5.83;;;5.23;;
9166;SDS011;4618;48.818;9.088;2023-11-22T01:17:33;6.77;;;5.90;;
9166;SDS011;4618;48.818;9.088;2023-11-22T01:19:59;6.23;;;5.63;;
9166;SDS011;4618;48.818;9.088;2023-11-22T01:22:25;6.57;;;5.97;;
9166;SDS011;4618;48.818;9.088;2023-11-22T01:24:52;6.20;;;5.60;;
9166;SDS011;4618;48.818;9.088;2023-11-22T01:27:18;7.27;;;5.90;;
9166;SDS011;4618;48.818;9.088;2023-11-22T01:29:43;6.80;;;5.43;;
9166;SDS011;4618;48.818;9.088;2023-11-22T01:32:09;6.60;;;4.90;;
9166;SDS011;4618;48.818;9.088;2023-11-22T01:34:35;6.40;;;5.03;;
9166;SDS011;4618;48.818;9.088;2023-11-22T01:37:01;5.27;;;4.77;;
9166;SDS011;4618;48.818;9.088;2023-11-22T01:39:28;5.60;;;4.87;;
9166;SDS011;4618;48.818;9.088;2023-11-22T01:41:54;5.57;;;5.00;;
9166;SDS011;4618;48.818;9.088;2023-11-22T01:44:20;4.93;;;4.53;;
9166;SDS011;4618;48.818;9.088;2023-11-22T01:46:46;4.77;;;4.30;;
9166;SDS011;4618;48.818;9.088;2023-11-22T01:49:11;6.83;;;4.13;;
9166;SDS011;4618;48.818;9.088;2023-11-22T01:51:38;4.70;;;4.13;;
9166;SDS011;4618;48.818;9.088;2023-11-22T01:54:06;4.33;;;3.93;;
9166;SDS011;4618;48.818;9.088;2023-11-22T01:56:33;4.20;;;3.80;;
9166;SDS011;4618;48.818;9.088;2023-11-22T01:59:02;4.33;;;3.93;;
9166;SDS011;4618;48.818;9.088;2023-11-22T02:01:29;4.20;;;3.80;;
9166;SDS011;4618;48.818;9.088;2023-11-22T02:03:56;4.40;;;4.00;;
9166;SDS011;4618;48.818;9.088;2023-11-22T02:06:22;4.40;;;4.00;;
9166;SDS011;4618;48.818;9.088;2023-11-22T02:08:48;4.20;;;3.80;;
9166;SDS011;4618;48.818;9.088;2023-11-22T02:11:17;3.80;;;3.50;;
9166;SDS011;4618;48.818;9.088;2023-11-22T02:13:47;4.37;;;3.97;;
9166;SDS011;4618;48.818;9.088;2023-11-22T02:16:15;4.00;;;3.60;;
9166;SDS011;4618;48.818;9.088;2023-11-22T02:18:43;4.00;;;3.60;;
9166;SDS011;4618;48.818;9.088;2023-11-22T02:21:12;5.00;;;3.80;;
9166;SDS011;4618;48.818;9.088;2023-11-22T02:23:38;3.97;;;3.63;;
9166;SDS011;4618;48.818;9.088;2023-11-22T02:26:04;4.20;;;3.80;;
9166;SDS011;4618;48.818;9.088;2023-11-22T02:28:29;5.77;;;3.90;;
9166;SDS011;4618;48.818;9.088;2023-11-22T02:30:55;4.20;;;3.83;;
9166;SDS011;4618;48.818;9.088;2023-11-22T02:33:20;4.30;;;3.90;;
9166;SDS011;4618;48.818;9.088;2023-11-22T02:35:46;4.03;;;3.73;;
9166;SDS011;4618;48.818;9.088;2023-11-22T02:38:11;5.63;;;4.50;;
9166;SDS011;4618;48.818;9.088;2023-11-22T02:40:37;4.53;;;4.13;;
9166;SDS011;4618;48.818;9.088;2023-11-22T02:43:03;6.83;;;4.77;;
9166;SDS011;4618;48.818;9.088;2023-11-22T02:45:33;5.37;;;4.53;;
9166;SDS011;4618;48.818;9.088;2023-11-22T02:48:00;5.27;;;4.77;;
9166;SDS011;4618;48.818;9.088;2023-11-22T02:50:29;5.17;;;4.73;;
9166;SDS011;4618;48.818;9.088;2023-11-22T02:52:57;5.20;;;4.70;;
9166;SDS011;4618;48.818;9.088;2023-11-22T02:55:23;8.00;;;5.00;;
9166;SDS011;4618;48.818;9.088;2023-11-22T02:57:49;5.60;;;5.10;;
9166;SDS011;4618;48.818;9.088;2023-11-22T03:00:16;5.23;;;4.73;;
9166;SDS011;4618;48.818;9.088;2023-11-22T03:02:43;6.77;;;4.80;;
9166;SDS011;4618;48.818;9.088;2023-11-22T03:05:11;5.20;;;4.70;;
9166;SDS011;4618;48.818;9.088;2023-11-22T03:07:37;5.70;;;5.10;;
9166;SDS011;4618;48.818;9.088;2023-11-22T03:10:04;5.80;;;5.17;;
9166;SDS011;4618;48.818;9.088;2023-11-22T03:12:30;6.10;;;5.37;;
9166;SDS011;4618;48.818;9.088;2023-11-22T03:14:55;5.93;;;5.07;;
9166;SDS011;4618;48.818;9.088;2023-11-22T03:17:25;7.57;;;6.13;;
9166;SDS011;4618;48.818;9.088;2023-11-22T03:19:53;6.50;;;5.60;;
9166;SDS011;4618;48.818;9.088;2023-11-22T03:22:21;6.30;;;5.63;;
9166;SDS011;4618;48.818;9.088;2023-11-22T03:24:50;6.97;;;5.63;;
9166;SDS011;4618;48.818;9.088;2023-11-22T03:27:17;7.27;;;5.70;;
9166;SDS011;4618;48.818;9.088;2023-11-22T03:29:43;6.23;;;5.53;;
9166;SDS011;4618;48.818;9.088;2023-11-22T03:32:09;8.37;;;6.57;;
9166;SDS011;4618;48.818;9.088;2023-11-22T03:34:36;6.90;;;5.97;;
9166;SDS011;4618;48.818;9.088;2023-11-22T03:37:02;7.13;;;6.00;;
9166;SDS011;4618;48.818;9.088;2023-11-22T03:39:27;7.10;;;5.50;;
9166;SDS011;4618;48.818;9.088;2023-11-22T03:41:53;8.53;;;6.40;;
9166;SDS011;4618;48.818;9.088;2023-11-22T03:44:18;6.70;;;6.00;;
9166;SDS011;4618;48.818;9.088;2023-11-22T03:46:44;6.57;;;5.87;;
9166;SDS011;4618;48.818;9.088;2023-11-22T03:49:09;6.63;;;5.43;;
9166;SDS011;4618;48.818;9.088;2023-11-22T03:51:36;8.93;;;6.43;;
9166;SDS011;4618;48.818;9.088;2023-11-22T03:54:03;6.97;;;5.83;;
9166;SDS011;4618;48.818;9.088;2023-11-22T03:56:29;6.30;;;5.70;;
9166;SDS011;4618;48.818;9.088;2023-11-22T03:58:55;5.80;;;5.20;;
9166;SDS011;4618;48.818;9.088;2023-11-22T04:01:21;6.10;;;5.50;;
9166;SDS011;4618;48.818;9.088;2023-11-22T04:03:47;5.87;;;5.33;;
9166;SDS011;4618;48.818;9.088;2023-11-22T04:06:14;6.27;;;5.67;;
9166;SDS011;4618;48.818;9.088;2023-11-22T04:08:40;7.17;;;6.07;;
9166;SDS011;4618;48.818;9.088;2023-11-22T04:11:08;6.63;;;6.00;;
9166;SDS011;4618;48.818;9.088;2023-11-22T04:13:35;7.77;;;5.60;;
9166;SDS011;4618;48.818;9.088;2023-11-22T04:16:00;9.23;;;5.50;;
9166;SDS011;4618;48.818;9.088;2023-11-22T04:18:26;5.97;;;5.10;;
9166;SDS011;4618;48.818;9.088;2023-11-22T04:20:52;5.47;;;4.77;;
9166;SDS011;4618;48.818;9.088;2023-11-22T04:23:17;5.43;;;4.93;;
9166;SDS011;4618;48.818;9.088;2023-11-22T04:25:43;5.77;;;4.60;;
9166;SDS011;4618;48.818;9.088;2023-11-22T04:28:08;5.40;;;4.90;;
9166;SDS011;4618;48.818;9.088;2023-11-22T04:30:35;5.50;;;5.00;;
9166;SDS011;4618;48.818;9.088;2023-11-22T04:33:00;5.43;;;4.80;;
9166;SDS011;4618;48.818;9.088;2023-11-22T04:35:26;5.57;;;4.33;;
9166;SDS011;4618;48.818;9.088;2023-11-22T04:37:52;4.40;;;3.83;;
9166;SDS011;4618;48.818;9.088;2023-11-22T04:40:20;4.47;;;3.97;;
9166;SDS011;4618;48.818;9.088;2023-11-22T04:42:46;5.57;;;4.60;;
9166;SDS011;4618;48.818;9.088;2023-11-22T04:45:13;5.43;;;4.50;;
9166;SDS011;4618;48.818;9.088;2023-11-22T04:47:39;4.53;;;4.13;;
9166;SDS011;4618;48.818;9.088;2023-11-22T04:50:05;4.30;;;3.90;;
9166;SDS011;4618;48.818;9.088;2023-11-22T04:52:31;4.80;;;4.20;;
9166;SDS011;4618;48.818;9.088;2023-11-22T04:54:57;6.03;;;4.93;;
9166;SDS011;4618;48.818;9.088;2023-11-22T04:57:23;4.77;;;4.27;;
9166;SDS011;4618;48.818;9.088;2023-11-22T04:59:48;4.27;;;3.87;;
9166;SDS011;4618;48.818;9.088;2023-11-22T05:02:14;4.53;;;4.13;;
9166;SDS011;4618;48.818;9.088;2023-11-22T05:04:41;5.67;;;4.47;;
9166;SDS011;4618;48.818;9.088;2023-11-22T05:07:07;4.80;;;4.10;;
9166;SDS011;4618;48.818;9.088;2023-11-22T05:09:32;5.87;;;4.53;;
9166;SDS011;4618;48.818;9.088;2023-11-22T05:11:58;4.80;;;4.30;;
9166;SDS011;4618;48.818;9.088;2023-11-22T05:14:24;4.53;;;3.80;;
9166;SDS011;4618;48.818;9.088;2023-11-22T05:16:49;5.50;;;3.87;;
9166;SDS011;4618;48.818;9.088;2023-11-22T05:19:15;5.20;;;4.70;;
9166;SDS011;4618;48.818;9.088;2023-11-22T05:21:41;5.53;;;4.40;;
9166;SDS011;4618;48.818;9.088;2023-11-22T05:24:07;4.40;;;3.80;;
9166;SDS011;4618;48.818;9.088;2023-11-22T05:26:32;4.63;;;3.90;;
9166;SDS011;4618;48.818;9.088;2023-11-22T05:28:58;5.60;;;3.70;;
9166;SDS011;4618;48.818;9.088;2023-11-22T05:31:24;4.17;;;3.77;;
9166;SDS011;4618;48.818;9.088;2023-11-22T05:33:49;3.70;;;3.40;;
9166;SDS011;4618;48.818;9.088;2023-11-22T05:36:15;3.87;;;3.50;;
9166;SDS011;4618;48.818;9.088;2023-11-22T05:38:42;4.13;;;3.73;;
9166;SDS011;4618;48.818;9.088;2023-11-22T05:41:07;4.17;;;3.67;;
9166;SDS011;4618;48.818;9.088;2023-11-22T05:43:33;4.43;;;3.70;;
9166;SDS011;4618;48.818;9.088;2023-11-22T05:46:01;3.90;;;3.57;;
9166;SDS011;4618;48.818;9.088;2023-11-22T05:48:28;3.87;;;3.57;;
9166;SDS011;4618;48.818;9.088;2023-11-22T05:50:53;5.30;;;3.60;;
9166;SDS011;4618;48.818;9.088;2023-11-22T05:53:19;4.67;;;3.97;;
9166;SDS011;4618;48.818;9.088;2023-11-22T05:55:46;4.40;;;4.00;;
9166;SDS011;4618;48.818;9.088;2023-11-22T05:58:13;5.10;;;3.80;;
9166;SDS011;4618;48.818;9.088;2023-11-22T06:00:45;5.43;;;3.70;;
9166;SDS011;4618;48.818;9.088;2023-11-22T06:03:11;4.50;;;3.70;;
9166;SDS011;4618;48.818;9.088;2023-11-22T06:05:40;4.07;;;3.67;;
9166;SDS011;4618;48.818;9.088;2023-11-22T06:08:06;4.50;;;3.93;;
9166;SDS011;4618;48.818;9.088;2023-11-22T06:10:31;4.30;;;3.90;;
9166;SDS011;4618;48.818;9.088;2023-11-22T06:12:57;4.03;;;3.70;;
9166;SDS011;4618;48.818;9.088;2023-11-22T06:15:23;4.30;;;3.87;;
9166;SDS011;4618;48.818;9.088;2023-11-22T06:17:48;5.60;;;3.53;;
9166;SDS011;4618;48.818;9.088;2023-11-22T06:20:14;5.93;;;4.03;;
9166;SDS011;4618;48.818;9.088;2023-11-22T06:22:40;3.90;;;3.60;;
9166;SDS011;4618;48.818;9.088;2023-11-22T06:25:10;4.63;;;3.83;;
9166;SDS011;4618;48.818;9.088;2023-11-22T06:27:36;4.80;;;3.70;;
9166;SDS011;4618;48.818;9.088;2023-11-22T06:30:02;6.63;;;4.20;;
9166;SDS011;4618;48.818;9.088;2023-11-22T06:32:28;5.00;;;4.03;;
9166;SDS011;4618;48.818;9.088;2023-11-22T06:34:54;3.83;;;3.53;;
9166;SDS011;4618;48.818;9.088;2023-11-22T06:37:19;3.90;;;3.50;;
9166;SDS011;4618;48.818;9.088;2023-11-22T06:39:46;7.30;;;4.00;;
9166;SDS011;4618;48.818;9.088;2023-11-22T06:42:11;4.10;;;3.70;;
9166;SDS011;4618;48.818;9.088;2023-11-22T06:44:38;3.93;;;3.63;;
9166;SDS011;4618;48.818;9.088;2023-11-22T06:47:05;4.30;;;3.83;;
9166;SDS011;4618;48.818;9.088;2023-11-22T06:49:32;4.43;;;3.57;;
9166;SDS011;4618;48.818;9.088;2023-11-22T06:51:58;3.57;;;3.27;;
9166;SDS011;4618;48.818;9.088;2023-11-22T06:54:24;3.13;;;2.70;;
9166;SDS011;4618;48.818;9.088;2023-11-22T06:56:49;2.87;;;2.67;;
9166;SDS011;4618;48.818;9.088;2023-11-22T06:59:16;3.50;;;3.00;;
9166;SDS011;4618;48.818;9.088;2023-11-22T07:01:42;3.80;;;2.97;;
9166;SDS011;4618;48.818;9.088;2023-11-22T07:04:08;3.30;;;3.00;;
9166;SDS011;4618;48.818;9.088;2023-11-22T07:06:34;2.80;;;2.57;;
9166;SDS011;4618;48.818;9.088;2023-11-22T07:09:01;5.07;;;2.90;;
9166;SDS011;4618;48.818;9.088;2023-11-22T07:11:26;4.33;;;3.03;;
9166;SDS011;4618;48.818;9.088;2023-11-22T07:13:55;2.90;;;2.70;;
9166;SDS011;4618;48.818;9.088;2023-11-22T07:16:22;2.80;;;2.53;;
9166;SDS011;4618;48.818;9.088;2023-11-22T07:18:49;3.60;;;2.67;;
9166;SDS011;4618;48.818;9.088;2023-11-22T07:21:18;3.90;;;2.43;;
9166;SDS011;4618;48.818;9.088;2023-11-22T07:23:45;3.20;;;2.90;;
9166;SDS011;4618;48.818;9.088;2023-11-22T07:26:11;5.30;;;2.70;;
9166;SDS011;4618;48.818;9.088;2023-11-22T07:28:39;3.17;;;2.90;;
9166;SDS011;4618;48.818;9.088;2023-11-22T07:31:06;2.80;;;2.50;;
9166;SDS011;4618;48.818;9.088;2023-11-22T07:33:32;3.40;;;2.60;;
9166;SDS011;4618;48.818;9.088;2023-11-22T07:35:58;3.77;;;2.63;;
9166;SDS011;4618;48.818;9.088;2023-11-22T07:38:24;3.20;;;2.90;;
9166;SDS011;4618;48.818;9.088;2023-11-22T07:40:50;4.13;;;2.73;;
9166;SDS011;4618;48.818;9.088;2023-11-22T07:43:16;3.47;;;2.80;;
9166;SDS011;4618;48.818;9.088;2023-11-22T07:45:42;3.10;;;2.67;;
9166;SDS011;4618;48.818;9.088;2023-11-22T07:48:08;3.07;;;2.77;;
9166;SDS011;4618;48.818;9.088;2023-11-22T07:50:37;3.07;;;2.70;;
9166;SDS011;4618;48.818;9.088;2023-11-22T07:53:04;3.33;;;2.50;;
9166;SDS011;4618;48.818;9.088;2023-11-22T07:55:30;3.57;;;2.63;;
9166;SDS011;4618;48.818;9.088;2023-11-22T07:57:55;3.30;;;2.57;;
9166;SDS011;4618;48.818;9.088;2023-11-22T08:00:22;3.00;;;2.70;;
9166;SDS011;4618;48.818;9.088;2023-11-22T08:02:48;4.67;;;2.93;;
9166;SDS011;4618;48.818;9.088;2023-11-22T08:05:14;3.83;;;2.97;;
9166;SDS011;4618;48.818;9.088;2023-11-22T08:07:40;4.10;;;2.90;;
9166;SDS011;4618;48.818;9.088;2023-11-22T08:10:09;3.30;;;3.00;;
9166;SDS011;4618;48.818;9.088;2023-11-22T08:12:42;3.10;;;2.80;;
9166;SDS011;4618;48.818;9.088;2023-11-22T08:15:10;4.90;;;3.40;;
9166;SDS011;4618;48.818;9.088;2023-11-22T08:17:37;4.63;;;2.93;;
9166;SDS011;4618;48.818;9.088;2023-11-22T08:20:03;3.40;;;2.70;;
9166;SDS011;4618;48.818;9.088;2023-11-22T08:22:31;4.43;;;3.67;;
9166;SDS011;4618;48.818;9.088;2023-11-22T08:25:01;3.30;;;2.90;;
9166;SDS011;4618;48.818;9.088;2023-11-22T08:27:28;3.50;;;3.17;;
9166;SDS011;4618;48.818;9.088;2023-11-22T08:29:53;3.13;;;2.83;;
9166;SDS011;4618;48.818;9.088;2023-11-22T08:32:19;4.27;;;3.27;;
9166;SDS011;4618;48.818;9.088;2023-11-22T08:34:48;4.00;;;3.40;;
9166;SDS011;4618;48.818;9.088;2023-11-22T08:37:14;5.97;;;3.30;;
9166;SDS011;4618;48.818;9.088;2023-11-22T08:39:40;5.53;;;3.73;;
9166;SDS011;4618;48.818;9.088;2023-11-22T08:42:06;5.13;;;3.40;;
9166;SDS011;4618;48.818;9.088;2023-11-22T08:44:34;5.70;;;3.77;;
9166;SDS011;4618;48.818;9.088;2023-11-22T08:47:01;4.77;;;3.60;;
9166;SDS011;4618;48.818;9.088;2023-11-22T08:49:28;4.00;;;3.40;;
9166;SDS011;4618;48.818;9.088;2023-11-22T08:51:54;3.47;;;3.17;;
9166;SDS011;4618;48.818;9.088;2023-11-22T08:54:19;3.40;;;3.10;;
9166;SDS011;4618;48.818;9.088;2023-11-22T08:56:45;3.80;;;3.10;;
9166;SDS011;4618;48.818;9.088;2023-11-22T08:59:12;4.20;;;3.30;;
9166;SDS011;4618;48.818;9.088;2023-11-22T09:01:37;3.93;;;3.47;;
9166;SDS011;4618;48.818;9.088;2023-11-22T09:04:03;6.83;;;3.47;;
9166;SDS011;4618;48.818;9.088;2023-11-22T09:06:29;4.67;;;3.70;;
9166;SDS011;4618;48.818;9.088;2023-11-22T09:08:55;4.90;;;3.57;;
9166;SDS011;4618;48.818;9.088;2023-11-22T09:11:21;4.87;;;3.73;;
9166;SDS011;4618;48.818;9.088;2023-11-22T09:13:47;5.47;;;3.83;;
9166;SDS011;4618;48.818;9.088;2023-11-22T09:16:15;4.13;;;3.40;;
9166;SDS011;4618;48.818;9.088;2023-11-22T09:18:41;6.57;;;3.97;;
9166;SDS011;4618;48.818;9.088;2023-11-22T09:21:08;6.50;;;3.90;;
9166;SDS011;4618;48.818;9.088;2023-11-22T09:23:34;8.37;;;4.50;;
9166;SDS011;4618;48.818;9.088;2023-11-22T09:26:01;5.30;;;3.97;;
9166;SDS011;4618;48.818;9.088;2023-11-22T09:28:27;4.10;;;3.70;;
9166;SDS011;4618;48.818;9.088;2023-11-22T09:30:53;4.57;;;4.07;;
9166;SDS011;4618;48.818;9.088;2023-11-22T09:33:26;4.30;;;3.90;;
9166;SDS011;4618;48.818;9.088;2023-11-22T09:35:51;5.00;;;4.00;;
9166;SDS011;4618;48.818;9.088;2023-11-22T09:38:17;4.20;;;3.60;;
9166;SDS011;4618;48.818;9.088;2023-11-22T09:43:12;5.57;;;3.70;;
9166;SDS011;4618;48.818;9.088;2023-11-22T09:45:50;5.17;;;3.80;;
9166;SDS011;4618;48.818;9.088;2023-11-22T09:48:19;5.00;;;4.03;;
9166;SDS011;4618;48.818;9.088;2023-11-22T09:53:55;4.80;;;3.83;;
9166;SDS011;4618;48.818;9.088;2023-11-22T09:56:24;4.37;;;3.20;;
9166;SDS011;4618;48.818;9.088;2023-11-22T09:58:54;6.40;;;3.93;;
9166;SDS011;4618;48.818;9.088;2023-11-22T10:01:24;5.73;;;4.20;;
9166;SDS011;4618;48.818;9.088;2023-11-22T10:03:53;5.53;;;3.83;;
9166;SDS011;4618;48.818;9.088;2023-11-22T10:06:19;4.73;;;3.80;;
9166;SDS011;4618;48.818;9.088;2023-11-22T10:08:45;7.07;;;4.33;;
9166;SDS011;4618;48.818;9.088;2023-11-22T10:11:14;6.33;;;4.30;;
9166;SDS011;4618;48.818;9.088;2023-11-22T10:13:42;4.57;;;3.90;;
9166;SDS011;4618;48.818;9.088;2023-11-22T10:16:17;4.77;;;4.23;;
9166;SDS011;4618;48.818;9.088;2023-11-22T10:18:45;5.40;;;4.53;;
9166;SDS011;4618;48.818;9.088;2023-11-22T10:21:22;5.33;;;4.37;;
9166;SDS011;4618;48.818;9.088;2023-11-22T10:23:49;4.93;;;4.27;;
9166;SDS011;4618;48.818;9.088;2023-11-22T10:26:21;5.20;;;4.37;;
9166;SDS011;4618;48.818;9.088;2023-11-22T10:28:50;6.70;;;4.87;;
9166;SDS011;4618;48.818;9.088;2023-11-22T10:31:16;5.40;;;4.30;;
9166;SDS011;4618;48.818;9.088;2023-11-22T10:33:42;5.03;;;4.37;;
9166;SDS011;4618;48.818;9.088;2023-11-22T10:36:08;6.10;;;4.33;;
9166;SDS011;4618;48.818;9.088;2023-11-22T10:38:34;5.83;;;4.47;;
9166;SDS011;4618;48.818;9.088;2023-11-22T10:41:04;6.07;;;4.00;;
9166;SDS011;4618;48.818;9.088;2023-11-22T10:43:30;5.80;;;4.70;;
9166;SDS011;4618;48.818;9.088;2023-11-22T10:46:00;7.93;;;4.60;;
9166;SDS011;4618;48.818;9.088;2023-11-22T10:48:35;5.93;;;4.57;;
9166;SDS011;4618;48.818;9.088;2023-11-22T10:51:02;4.30;;;3.90;;
9166;SDS011;4618;48.818;9.088;2023-11-22T10:53:33;7.63;;;4.43;;
9166;SDS011;4618;48.818;9.088;2023-11-22T10:58:37;5.90;;;4.83;;
9166;SDS011;4618;48.818;9.088;2023-11-22T11:01:10;4.43;;;3.87;;
9166;SDS011;4618;48.818;9.088;2023-11-22T11:03:37;4.83;;;4.40;;
9166;SDS011;4618;48.818;9.088;2023-11-22T11:06:07;4.40;;;3.97;;
9166;SDS011;4618;48.818;9.088;2023-11-22T11:08:38;4.60;;;4.20;;
9166;SDS011;4618;48.818;9.088;2023-11-22T11:11:04;4.37;;;3.97;;
9166;SDS011;4618;48.818;9.088;2023-11-22T11:13:31;5.30;;;4.37;;
9166;SDS011;4618;48.818;9.088;2023-11-22T11:15:57;4.27;;;3.87;;
9166;SDS011;4618;48.818;9.088;2023-11-22T11:18:24;4.50;;;4.10;;
9166;SDS011;4618;48.818;9.088;2023-11-22T11:20:50;6.17;;;4.77;;
9166;SDS011;4618;48.818;9.088;2023-11-22T11:23:25;5.00;;;4.50;;
9166;SDS011;4618;48.818;9.088;2023-11-22T11:25:58;5.10;;;4.60;;
9166;SDS011;4618;48.818;9.088;2023-11-22T11:28:43;10.30;;;5.20;;
9166;SDS011;4618;48.818;9.088;2023-11-22T11:31:12;5.30;;;4.67;;
9166;SDS011;4618;48.818;9.088;2023-11-22T11:33:52;6.93;;;4.63;;
9166;SDS011;4618;48.818;9.088;2023-11-22T11:36:28;6.30;;;4.00;;
9166;SDS011;4618;48.818;9.088;2023-11-22T11:38:58;8.20;;;4.70;;
9166;SDS011;4618;48.818;9.088;2023-11-22T11:41:33;6.17;;;4.77;;
9166;SDS011;4618;48.818;9.088;2023-11-22T11:44:03;5.17;;;4.67;;
9166;SDS011;4618;48.818;9.088;2023-11-22T11:46:32;5.97;;;4.20;;
9166;SDS011;4618;48.818;9.088;2023-11-22T11:48:58;5.53;;;4.40;;
9166;SDS011;4618;48.818;9.088;2023-11-22T11:51:27;5.50;;;4.57;;
9166;SDS011;4618;48.818;9.088;2023-11-22T11:53:54;7.27;;;4.33;;
9166;SDS011;4618;48.818;9.088;2023-11-22T11:56:20;5.13;;;3.93;;
9166;SDS011;4618;48.818;9.088;2023-11-22T11:58:47;5.70;;;5.00;;
9166;SDS011;4618;48.818;9.088;2023-11-22T12:01:17;6.93;;;5.03;;
9166;SDS011;4618;48.818;9.088;2023-11-22T12:03:46;5.53;;;4.90;;
9166;SDS011;4618;48.818;9.088;2023-11-22T12:06:16;6.70;;;4.90;;
9166;SDS011;4618;48.818;9.088;2023-11-22T12:08:43;6.43;;;4.83;;
9166;SDS011;4618;48.818;9.088;2023-11-22T12:11:09;6.27;;;4.73;;
9166;SDS011;4618;48.818;9.088;2023-11-22T12:13:35;4.60;;;4.03;;
9166;SDS011;4618;48.818;9.088;2023-11-22T12:16:06;5.20;;;4.70;;
9166;SDS011;4618;48.818;9.088;2023-11-22T12:18:45;5.83;;;4.77;;
9166;SDS011;4618;48.818;9.088;2023-11-22T12:21:15;5.30;;;4.80;;
9166;SDS011;4618;48.818;9.088;2023-11-22T12:23:42;5.00;;;4.60;;
9166;SDS011;4618;48.818;9.088;2023-11-22T12:26:17;6.07;;;4.77;;
9166;SDS011;4618;48.818;9.088;2023-11-22T12:28:46;4.97;;;4.53;;
9166;SDS011;4618;48.818;9.088;2023-11-22T12:31:15;5.50;;;4.90;;
9166;SDS011;4618;48.818;9.088;2023-11-22T12:33:42;6.90;;;4.80;;
9166;SDS011;4618;48.818;9.088;2023-11-22T12:36:08;5.30;;;4.80;;
9166;SDS011;4618;48.818;9.088;2023-11-22T12:38:35;7.03;;;4.70;;
9166;SDS011;4618;48.818;9.088;2023-11-22T12:41:02;5.63;;;4.87;;
9166;SDS011;4618;48.818;9.088;2023-11-22T12:43:28;4.87;;;4.40;;
9166;SDS011;4618;48.818;9.088;2023-11-22T12:45:59;5.33;;;4.83;;
9166;SDS011;4618;48.818;9.088;2023-11-22T12:48:26;6.47;;;4.90;;
9166;SDS011;4618;48.818;9.088;2023-11-22T12:50:54;6.17;;;5.03;;
9166;SDS011;4618;48.818;9.088;2023-11-22T12:53:21;7.00;;;4.90;;
9166;SDS011;4618;48.818;9.088;2023-11-22T12:55:50;5.23;;;4.70;;
9166;SDS011;4618;48.818;9.088;2023-11-22T12:58:20;5.60;;;5.00;;
9166;SDS011;4618;48.818;9.088;2023-11-22T13:00:48;5.30;;;4.80;;
9166;SDS011;4618;48.818;9.088;2023-11-22T13:03:15;6.07;;;5.03;;
9166;SDS011;4618;48.818;9.088;2023-11-22T13:05:41;7.10;;;5.50;;
9166;SDS011;4618;48.818;9.088;2023-11-22T13:08:08;7.73;;;5.53;;
9166;SDS011;4618;48.818;9.088;2023-11-22T13:10:38;8.23;;;5.10;;
9166;SDS011;4618;48.818;9.088;2023-11-22T13:13:04;5.80;;;5.20;;
9166;SDS011;4618;48.818;9.088;2023-11-22T13:15:33;6.07;;;5.13;;
9166;SDS011;4618;48.818;9.088;2023-11-22T13:17:59;6.27;;;5.00;;
9166;SDS011;4618;48.818;9.088;2023-11-22T13:20:25;5.33;;;4.67;;
9166;SDS011;4618;48.818;9.088;2023-11-22T13:22:52;5.17;;;4.67;;
9166;SDS011;4618;48.818;9.088;2023-11-22T13:25:18;6.13;;;5.20;;
9166;SDS011;4618;48.818;9.088;2023-11-22T13:27:45;5.63;;;5.03;;
9166;SDS011;4618;48.818;9.088;2023-11-22T13:30:13;6.13;;;5.23;;
9166;SDS011;4618;48.818;9.088;2023-11-22T13:32:49;7.53;;;4.93;;
9166;SDS011;4618;48.818;9.088;2023-11-22T13:35:15;7.10;;;5.10;;
9166;SDS011;4618;48.818;9.088;2023-11-22T13:37:42;5.77;;;5.10;;
9166;SDS011;4618;48.818;9.088;2023-11-22T13:40:12;7.37;;;5.23;;
9166;SDS011;4618;48.818;9.088;2023-11-22T13:42:45;5.53;;;5.00;;
9166;SDS011;4618;48.818;9.088;2023-11-22T13:45:12;5.50;;;4.90;;
9166;SDS011;4618;48.818;9.088;2023-11-22T13:47:42;5.90;;;5.30;;
9166;SDS011;4618;48.818;9.088;2023-11-22T13:50:16;7.83;;;5.43;;
9166;SDS011;4618;48.818;9.088;2023-11-22T13:52:50;6.93;;;5.37;;
9166;SDS011;4618;48.818;9.088;2023-11-22T13:55:16;6.07;;;5.40;;
9166;SDS011;4618;48.818;9.088;2023-11-22T13:57:44;6.43;;;5.50;;
9166;SDS011;4618;48.818;9.088;2023-11-22T14:00:10;6.43;;;5.57;;
9166;SDS011;4618;48.818;9.088;2023-11-22T14:02:38;5.77;;;5.17;;
9166;SDS011;4618;48.818;9.088;2023-11-22T14:05:05;6.77;;;5.23;;
9166;SDS011;4618;48.818;9.088;2023-11-22T14:07:37;6.03;;;5.20;;
9166;SDS011;4618;48.818;9.088;2023-11-22T14:10:03;6.83;;;5.70;;
9166;SDS011;4618;48.818;9.088;2023-11-22T14:12:31;7.27;;;5.60;;
9166;SDS011;4618;48.818;9.088;2023-11-22T14:14:57;6.87;;;5.10;;
9166;SDS011;4618;48.818;9.088;2023-11-22T14:17:23;7.23;;;4.97;;
9166;SDS011;4618;48.818;9.088;2023-11-22T14:19:49;6.53;;;4.83;;
9166;SDS011;4618;48.818;9.088;2023-11-22T14:22:15;5.93;;;5.33;;
9166;SDS011;4618;48.818;9.088;2023-11-22T14:24:42;7.57;;;5.70;;
9166;SDS011;4618;48.818;9.088;2023-11-22T14:27:10;6.13;;;5.37;;
9166;SDS011;4618;48.818;9.088;2023-11-22T14:29:36;6.93;;;5.60;;
9166;SDS011;4618;48.818;9.088;2023-11-22T14:32:02;6.30;;;5.17;;
9166;SDS011;4618;48.818;9.088;2023-11-22T14:34:28;6.40;;;5.60;;
9166;SDS011;4618;48.818;9.088;2023-11-22T14:36:53;6.30;;;5.30;;
9166;SDS011;4618;48.818;9.088;2023-11-22T14:39:19;6.00;;;5.40;;
9166;SDS011;4618;48.818;9.088;2023-11-22T14:41:45;7.43;;;5.60;;
9166;SDS011;4618;48.818;9.088;2023-11-22T14:44:11;6.57;;;5.40;;
9166;SDS011;4618;48.818;9.088;2023-11-22T14:46:37;6.10;;;5.50;;
9166;SDS011;4618;48.818;9.088;2023-11-22T14:49:03;6.47;;;5.43;;
9166;SDS011;4618;48.818;9.088;2023-11-22T14:51:30;6.17;;;5.27;;
9166;SDS011;4618;48.818;9.088;2023-11-22T14:53:55;5.93;;;5.33;;
9166;SDS011;4618;48.818;9.088;2023-11-22T14:56:21;5.83;;;5.23;;
9166;SDS011;4618;48.818;9.088;2023-11-22T14:58:47;6.20;;;5.47;;
9166;SDS011;4618;48.818;9.088;2023-11-22T15:01:18;6.13;;;5.30;;
9166;SDS011;4618;48.818;9.088;2023-11-22T15:03:44;6.30;;;5.70;;
9166;SDS011;4618;48.818;9.088;2023-11-22T15:06:11;5.90;;;5.30;;
9166;SDS011;4618;48.818;9.088;2023-11-22T15:08:36;9.07;;;6.17;;
9166;SDS011;4618;48.818;9.088;2023-11-22T15:11:02;7.43;;;5.63;;
9166;SDS011;4618;48.818;9.088;2023-11-22T15:13:29;6.17;;;5.13;;
9166;SDS011;4618;48.818;9.088;2023-11-22T15:15:54;6.17;;;5.57;;
9166;SDS011;4618;48.818;9.088;2023-11-22T15:18:21;6.23;;;5.53;;
9166;SDS011;4618;48.818;9.088;2023-11-22T15:20:49;6.07;;;5.47;;
9166;SDS011;4618;48.818;9.088;2023-11-22T15:23:15;7.53;;;6.00;;